Cable Innovator — MVEP4 — position and weather

sailwx.info

Track history (hours):
 
Tides and Currents Weather Stations Pressure Air Temp Water Temp Dewpoint Dewpoint Depression Visibility Wind Speed Wind Dir Waves Ship Positions

Cable Innovator

Last reported at 2014-Oct-23 23:13 UTC. Time now 2014-Oct-25 02:53 UTC.
Position N 49°56' W 003°34'.

Length 145.5 m; beam 24 m; draft 8.3 m.

Type: Cargo ship. MMSI: 233933000.

Date/timePositionNaut miles runAvg speedWind from/ knotsBaromVisibWave heightAir tempDewpointWater temp
2014-Oct-23 23:13N 49°56' W 003°34'913.5
2014-Oct-23 22:33N 50°01' W 003°23'1312.7
2014-Oct-23 21:34N 50°08' W 003°07'1111.5
2014-Oct-23 20:34N 50°15' W 002°53'1210.7
2014-Oct-23 19:25N 50°22' W 002°36'12 9.8
2014-Oct-23 18:14N 50°29' W 002°22'  
2014-Oct-20 16:10N 50°34' W 002°26'2 2.8
2014-Oct-20 15:21N 50°35' W 002°23'6 8.0
2014-Oct-20 14:33N 50°31' W 002°16'3611.5
2014-Oct-20 11:25N 50°30' W 001°19'1314.1
2014-Oct-20 10:32N 50°30' W 000°59'1514.0
2014-Oct-20 09:25N 50°30' W 000°35'1213.1
2014-Oct-20 08:32N 50°30' W 000°17'6412.7
2014-Oct-20 03:32N 50°57' E 001°14'1414.7
2014-Oct-20 02:33N 51°06' E 001°32'1313.3
2014-Oct-20 01:33N 51°16' E 001°47'1312.8
2014-Oct-20 00:33N 51°28' E 001°55'1212.1
2014-Oct-19 23:33N 51°36' E 002°08'1211.7
2014-Oct-19 22:33N 51°45' E 002°21'  
2014-Oct-16 12:04N 58°50' E 005°00'714.6
2014-Oct-16 11:34N 58°50' E 005°14'1111.1
2014-Oct-16 10:34N 58°56' E 005°33'1 1.3
2014-Oct-16 09:33N 58°55' E 005°35'0 0.0
2014-Oct-16 08:33N 58°55' E 005°35'0 0.0
2014-Oct-16 07:33N 58°55' E 005°35'0 0.0
2014-Oct-16 06:33N 58°55' E 005°35'0 0.0
2014-Oct-16 05:33N 58°55' E 005°35'0 0.0
2014-Oct-16 04:33N 58°55' E 005°35'0 0.0
2014-Oct-16 03:24N 58°55' E 005°35'0 0.0
2014-Oct-16 02:27N 58°55' E 005°35'0 0.0
2014-Oct-16 01:27N 58°55' E 005°35'0 0.0
2014-Oct-16 00:27N 58°55' E 005°35'0 0.0
2014-Oct-15 23:27N 58°55' E 005°35'0 0.0
2014-Oct-15 22:30N 58°55' E 005°35'0 0.0
2014-Oct-15 21:30N 58°55' E 005°35'0 0.0
2014-Oct-15 20:33N 58°55' E 005°35'0 0.0
2014-Oct-15 19:33N 58°55' E 005°35'0 0.0
2014-Oct-15 18:33N 58°55' E 005°35'1 1.4
2014-Oct-15 17:33N 58°55' E 005°33'1110.7
2014-Oct-15 16:33N 58°50' E 005°14'  
Track history (hours):
 
Tides and Currents Weather Stations Pressure Air Temp Water Temp Dewpoint Dewpoint Depression Visibility Wind Speed Wind Dir Waves Ship Positions

Cable Innovator

Last reported at 2014-Oct-23 23:13 UTC. Time now 2014-Oct-25 02:53 UTC.
Position N 49°56' W 003°34'.

Length 145.5 m; beam 24 m; draft 8.3 m.

Type: Cargo ship. MMSI: 233933000.

Date/timePositionNaut miles runAvg speedWind from/ knotsBaromVisibWave heightAir tempDewpointWater temp
2014-Oct-23 23:13N 49°56' W 003°34'913.5
2014-Oct-23 22:33N 50°01' W 003°23'1312.7
2014-Oct-23 21:34N 50°08' W 003°07'1111.5
2014-Oct-23 20:34N 50°15' W 002°53'1210.7
2014-Oct-23 19:25N 50°22' W 002°36'12 9.8
2014-Oct-23 18:14N 50°29' W 002°22'  
2014-Oct-20 16:10N 50°34' W 002°26'2 2.8
2014-Oct-20 15:21N 50°35' W 002°23'6 8.0
2014-Oct-20 14:33N 50°31' W 002°16'3611.5
2014-Oct-20 11:25N 50°30' W 001°19'1314.1
2014-Oct-20 10:32N 50°30' W 000°59'1514.0
2014-Oct-20 09:25N 50°30' W 000°35'1213.1
2014-Oct-20 08:32N 50°30' W 000°17'6412.7
2014-Oct-20 03:32N 50°57' E 001°14'1414.7
2014-Oct-20 02:33N 51°06' E 001°32'1313.3
2014-Oct-20 01:33N 51°16' E 001°47'1312.8
2014-Oct-20 00:33N 51°28' E 001°55'1212.1
2014-Oct-19 23:33N 51°36' E 002°08'1211.7
2014-Oct-19 22:33N 51°45' E 002°21'  
2014-Oct-16 12:04N 58°50' E 005°00'714.6
2014-Oct-16 11:34N 58°50' E 005°14'1111.1
2014-Oct-16 10:34N 58°56' E 005°33'1 1.3
2014-Oct-16 09:33N 58°55' E 005°35'0 0.0
2014-Oct-16 08:33N 58°55' E 005°35'0 0.0
2014-Oct-16 07:33N 58°55' E 005°35'0 0.0
2014-Oct-16 06:33N 58°55' E 005°35'0 0.0
2014-Oct-16 05:33N 58°55' E 005°35'0 0.0
2014-Oct-16 04:33N 58°55' E 005°35'0 0.0
2014-Oct-16 03:24N 58°55' E 005°35'0 0.0
2014-Oct-16 02:27N 58°55' E 005°35'0 0.0
2014-Oct-16 01:27N 58°55' E 005°35'0 0.0
2014-Oct-16 00:27N 58°55' E 005°35'0 0.0
2014-Oct-15 23:27N 58°55' E 005°35'0 0.0
2014-Oct-15 22:30N 58°55' E 005°35'0 0.0
2014-Oct-15 21:30N 58°55' E 005°35'0 0.0
2014-Oct-15 20:33N 58°55' E 005°35'0 0.0
2014-Oct-15 19:33N 58°55' E 005°35'0 0.0
2014-Oct-15 18:33N 58°55' E 005°35'1 1.4
2014-Oct-15 17:33N 58°55' E 005°33'1110.7
2014-Oct-15 16:33N 58°50' E 005°14'  

Dump ship's entire track history